Tiempo atmosférico en la estación meteorológica de Fuente El Sol, Valladolid (755 m.)



Fecha
DESCASC
Temp. máxima en grados centígrados (hora)
DESCASC
Temp. mínima en grados centígrados (hora)
DESCASC
Temp. media en grados centígrados
DESCASC
Racha de viento máxima en m/sg (hora)
DESCASC
Velocidad máxima media en intervalos de 10 minutos(hora)
DESCASC
Precipitaciones diarias en mm
DESCASC
Precipitaciones de 00:00 a 06:00 en mm
DESCASC
Precipitaciones de 06:00 a 12:00 en mm
DESCASC
Precipitaciones de 12:00 a 18:00 en mm
DESCASC
Precipitaciones de 18:00 a 24:00 en mm
DESCASC
23-05-2018 26.7 (17:10) 10.1 (06:40) 18.4 8.89 (20:30) 5.28 (20:30) 0 0 0 0 0
22-05-2018 27.3 (18:20) 9.7 (07:00) 18.5 9.17 (20:20) 6.67 (20:20) 3.4 3.4 0 0 0
21-05-2018 24.2 (17:20) 9.7 (07:10) 17 9.72 (22:00) 6.39 (22:00) 0.4 0 0 0 0.4
20-05-2018 23.9 (16:10) 7.6 (00:00) 15.7 15.28 (16:40) 11.39 (16:40) 0 0 0 0 0
19-05-2018 23.1 (17:20) 6.9 (05:30) 15 8.61 (16:40) 5.56 (17:30) 0 0 0 0 0
18-05-2018 21.4 (16:40) 10.5 (00:00) 15.9 10.83 (19:50) 7.22 (18:30) 10 6.2 0.4 3.4 0
17-05-2018 25.5 (16:00) 6 (00:00) 15.8 12.78 (18:40) 8.61 (18:40) 5.2 0 0 1 4.2
16-05-2018 24.9 (17:50) 3.4 (00:00) 14.1 10 (17:10) 5.28 (20:50) 0 0 0 0 0
15-05-2018 21.3 (17:40) 0.1 (00:00) 10.7 9.72 (17:10) 6.11 (18:50) 0 0 0 0 0
14-05-2018 18.1 (18:00) 7.4 (00:00) 12.8 8.33 (16:00) 5 (14:40) 0 0 0 0 0
13-05-2018 15.5 (15:50) 0.1 (00:00) 7.8 11.94 (17:30) 6.67 (18:40) 0 0 0 0 0
12-05-2018 15.9 (15:50) 6.5 (00:00) 11.2 13.33 (08:40) 8.89 (16:00) 0 0 0 0 0
11-05-2018 23.5 (17:00) 4.8 (06:20) 14.2 13.89 (14:10) 7.22 (14:00) 0 0 0 0 0
10-05-2018 21.2 (17:50) 9.8 (00:00) 15.5 9.44 (09:00) 6.94 (09:10) 0 0 0 0 0
09-05-2018 24 (16:30) 7.4 (00:00) 15.7 9.72 (19:50) 7.22 (19:50) 0 0 0 0 0
08-05-2018 26.5 (18:30) 10.2 (00:00) 18.3 11.39 (19:40) 8.61 (19:40) 1.4 1.2 0 0 0.2
07-05-2018 27 (18:00) 7.2 (00:00) 17.1 16.39 (20:30) 10.56 (20:30) 1.2 0.2 0 0.2 0.8
06-05-2018 25.5 (18:20) 5.8 (06:20) 15.7 8.06 (10:20) 5.56 (10:50) 0 0 0 0 0
05-05-2018 22.8 (18:30) 2.8 (00:00) 12.8 5 (22:50) 3.61 (22:50) 0 0 0 0 0
04-05-2018 16.6 (18:00) 1.1 (00:00) 8.9 11.67 (13:40) 6.67 (09:40) 0 0 0 0 0
03-05-2018 15.1 (17:50) 5.8 (00:00) 10.5 10.28 (17:50) 7.5 (19:50) 0 0 0 0 0
02-05-2018 15.8 (16:00) 3.1 (00:00) 9.5 8.61 (14:00) 5 (14:00) 0 0 0 0 0
01-05-2018 15.2 (18:40) 1.4 (07:40) 8.3 7.5 (12:00) 4.17 (09:30) 0 0 0 0 0
30-04-2018 11.9 (18:20) 0.7 (00:00) 6.3 13.33 (18:40) 9.44 (18:50) 1.8 0 0 1.8 0
29-04-2018 10.6 (15:00) 3.1 (00:00) 6.9 16.67 (17:20) 12.5 (19:20) 5.2 0.2 4.6 0.4 0
28-04-2018 14.6 (16:40) 5.8 (00:00) 10.2 12.5 (17:20) 8.61 (16:50) 0 0 0 0 0

Gráficas

Temp. máximas Temp. mínimas Temp. medias Precipitaciones Rachas de viento máximas Velocidades máximas media en intervalos de 10 minutos

Datos horarios

Fecha y hora oficial Temperatura (ºC) Velocidad del viento (km/h) Dirección del viento Racha (km/h) Dirección de racha Precipitación (mm) Presión (hPa) Tendencia (hPa) Humedad (%)
2018-05-27 23:00:00 -- -- -- -- -- -- -- -- --
2018-05-27 22:00:00 -- -- -- -- -- -- -- -- --
2018-05-27 21:00:00 -- -- -- -- -- -- -- -- --
2018-05-27 20:00:00 18.2 19 Sur 28 Sur 0 -- -- 61
2018-05-27 19:00:00 21.7 11 Oeste 23 Noroeste 0 -- -- 48
2018-05-27 18:00:00 21.4 15 Noroeste 22 Noroeste 0 -- -- 50
2018-05-27 17:00:00 22.3 8 Noroeste 22 Noroeste 0 -- -- 42
2018-05-27 16:00:00 23.2 11 Noroeste 21 Oeste 0 -- -- 43
2018-05-27 15:00:00 22.4 7 Oeste 21 Noroeste 0 -- -- 43
2018-05-27 14:00:00 22.4 5 Noroeste 14 Noroeste 0 -- -- 46
2018-05-27 13:00:00 21.1 5 Sudeste 18 Sur 0 -- -- 52
2018-05-27 12:00:00 20.7 4 Nordeste 13 Nordeste 0 -- -- 53
2018-05-27 11:00:00 19.9 4 Nordeste 8 Este 0 -- -- 57
2018-05-27 10:00:00 18.1 5 Oeste 8 Oeste 0 -- -- 67
2018-05-27 09:00:00 13.6 5 Sur 9 Sur 0 -- -- 87
2018-05-27 08:00:00 11.5 3 Sur 6 Sur 0 -- -- 95
2018-05-27 07:00:00 10.3 2 Sur 9 Sur 0 -- -- 96
2018-05-27 06:00:00 9.6 6 Sur 12 Sudoeste 0 -- -- 96
2018-05-27 05:00:00 9.7 6 Sudoeste 9 Sur 0 -- -- 95
2018-05-27 04:00:00 11 5 Sur 11 Sudoeste 0 -- -- 93
2018-05-27 03:00:00 11.7 5 Sudoeste 11 Sudoeste 0 -- -- 93
2018-05-27 02:00:00 12.8 3 Sur 8 Sudoeste 0 -- -- 88
2018-05-27 01:00:00 13.9 6 Sudoeste 9 Sudoeste 0 -- -- 84
2018-05-27 00:00:00 14.2 7 Oeste 12 Sudoeste 0 -- -- 80
2018-05-26 23:00:00 13.7 0 Calma 10 Oeste 0 -- -- 82
2018-05-26 22:00:00 15.3 10 Oeste 14 Oeste 0 -- -- 72
2018-05-26 21:00:00 19 6 Sur 14 Sur 0 -- -- 57
2018-05-26 20:00:00 18.1 10 Sur 17 Sur 0 -- -- 61
2018-05-26 19:00:00 17.8 14 Sudeste 28 Sudeste 0 -- -- 60
2018-05-26 18:00:00 19.1 11 Sudeste 26 Nordeste 0 -- -- 55
2018-05-26 17:00:00 21.5 7 Sudoeste 24 Sudoeste 0 -- -- 42
2018-05-26 16:00:00 21 12 Oeste 28 Oeste 0 -- -- 43
2018-05-26 15:00:00 19.7 14 Sudoeste 30 Sudoeste 0 -- -- 46
2018-05-26 14:00:00 19 15 Sudoeste 25 Sudoeste 0 -- -- 50
2018-05-26 13:00:00 18.3 13 Sudoeste 31 Sudoeste 0 -- -- 57
2018-05-26 12:00:00 16.8 9 Sudoeste 19 Sudoeste 0 -- -- 67
2018-05-26 11:00:00 15.1 10 Sudoeste 15 Sudoeste 0 -- -- 79
2018-05-26 10:00:00 14.7 9 Sudoeste 18 Sudoeste 0 -- -- 83
2018-05-26 09:00:00 12.3 10 Sudoeste 19 Sudoeste 0 -- -- 93
2018-05-26 08:00:00 11.6 8 Sudoeste 13 Sudoeste 0 -- -- 95
2018-05-26 07:00:00 10.8 7 Sudoeste 10 Sudoeste 0 -- -- 96
2018-05-26 06:00:00 10.9 6 Sudoeste 8 Sudoeste 0.2 -- -- 96
2018-05-26 05:00:00 11.1 6 Sur 9 Sudoeste 0.2 -- -- 96
2018-05-26 04:00:00 10.9 5 Sur 7 Sur 0 -- -- 97
2018-05-26 03:00:00 10.6 2 Sur 8 Sudeste 0 -- -- 98
2018-05-26 02:00:00 10 2 Este 7 Sur 0 -- -- 97
2018-05-26 01:00:00 10.4 0 Calma 11 Este 0 -- -- 97
2018-05-26 00:00:00 10.3 0 Calma 8 Este 0 -- -- 96
2018-05-25 23:00:00 11.7 5 Nordeste 9 Norte 0 -- -- 92
2018-05-25 22:00:00 13.1 0 Calma 2 Noroeste 0 -- -- 90
2018-05-25 21:00:00 14.1 0 Calma 5 Oeste 0 -- -- 85
2018-05-25 20:00:00 14.7 2 Oeste 10 Oeste 0 -- -- 84
2018-05-25 19:00:00 14 5 Sudoeste 18 Sudoeste 0 -- -- 84
2018-05-25 18:00:00 12.8 13 Oeste 32 Sudoeste 0.6 -- -- 92
2018-05-25 17:00:00 17.7 14 Nordeste 28 Este 0 -- -- 67
2018-05-25 16:00:00 17.1 19 Este 28 Este 0 -- -- 70
2018-05-25 15:00:00 14.6 17 Este 28 Este 0.2 -- -- 79
2018-05-25 14:00:00 13.4 13 Este 27 Este 0 -- -- 83
2018-05-25 13:00:00 13.5 17 Este 32 Este 0 -- -- 82
2018-05-25 12:00:00 13.9 19 Este 28 Este 0 -- -- 81
2018-05-25 11:00:00 12.9 13 Este 33 Este 0 -- -- 86
2018-05-25 10:00:00 12.2 19 Este 37 Este 0 -- -- 89
2018-05-25 09:00:00 11.9 31 Este 46 Nordeste 0.4 -- -- 89
2018-05-25 08:00:00 12 13 Nordeste 27 Sudeste 3 -- -- 93
2018-05-25 07:00:00 12.5 11 Este 15 Sudoeste 0.4 -- -- 96
2018-05-25 06:00:00 13.1 8 Sur 14 Sur 0 -- -- 97
2018-05-25 05:00:00 13.9 6 Sur 12 Sudeste 0 -- -- 97
2018-05-25 04:00:00 13.5 9 Sur 18 Sur 0.2 -- -- 97
2018-05-25 03:00:00 14.2 13 Sur 26 Sur 1 -- -- 96
2018-05-25 02:00:00 14.5 7 Sudeste 10 Este 0.2 -- -- 96
2018-05-25 01:00:00 14.4 4 Sur 23 Noroeste 0.8 -- -- 94
2018-05-25 00:00:00 14.8 15 Sudoeste 21 Sudoeste 0 -- -- 93
2018-05-24 23:00:00 15.7 14 Nordeste 23 Norte 0 -- -- 88
2018-05-24 22:00:00 16.8 7 Nordeste 22 Nordeste 0 -- -- 84
2018-05-24 21:00:00 17.1 8 Este 33 Este 0.8 -- -- 84
2018-05-24 20:00:00 19.4 17 Norte 30 Norte 0 -- -- 69
2018-05-24 19:00:00 21.7 23 Norte 41 Noroeste 0 -- -- 56
2018-05-24 18:00:00 22 30 Noroeste 40 Noroeste 0 -- -- 61
2018-05-24 17:00:00 22.8 15 Noroeste 27 Noroeste 0.2 -- -- 59
2018-05-24 16:00:00 21.6 16 Norte 27 Noroeste 0 -- -- 56
2018-05-24 15:00:00 22.4 17 Noroeste 25 Noroeste 0 -- -- 59
2018-05-24 14:00:00 20.7 11 Norte 15 Norte 0 -- -- 65
2018-05-24 13:00:00 19.3 9 Norte 14 Norte 0 -- -- 69
2018-05-24 12:00:00 17.3 9 Norte 13 Norte 0 -- -- 77
2018-05-24 11:00:00 16.2 9 Norte 14 Norte 0 -- -- 82
2018-05-24 10:00:00 15 8 Nordeste 12 Nordeste 0 -- -- 86
2018-05-24 09:00:00 14.3 6 Norte 9 Norte 0 -- -- 90
2018-05-24 08:00:00 13.4 6 Noroeste 10 Norte 0 -- -- 93
2018-05-24 07:00:00 11.2 0 Calma 5 Este 0 -- -- 95
2018-05-24 06:00:00 11.8 8 Sudeste 12 Sudeste 0 -- -- 95
2018-05-24 05:00:00 11.2 6 Este 9 Este 0 -- -- 94
2018-05-24 04:00:00 12.5 6 Nordeste 12 Nordeste 0 -- -- 94
2018-05-24 03:00:00 12.9 7 Nordeste 11 Nordeste 0 -- -- 94
2018-05-24 02:00:00 13.9 8 Nordeste 12 Nordeste 0 -- -- 90
2018-05-24 01:00:00 14 4 Este 14 Norte 0 -- -- 88
2018-05-24 00:00:00 14.7 6 Nordeste 13 Nordeste 0 -- -- 85
2018-05-23 23:00:00 17.6 9 Nordeste 18 Norte 0 -- -- 68
2018-05-23 22:00:00 18.1 7 Norte 22 Norte 0 -- -- 62
2018-05-23 21:00:00 18.3 17 Noroeste 32 Oeste 0 -- -- 61
2018-05-23 20:00:00 22 11 Noroeste 20 Oeste 0 -- -- 54
2018-05-23 19:00:00 24.2 6 Norte 12 Nordeste 0 -- -- 38
2018-05-23 18:00:00 25.5 4 Oeste 12 Sudeste 0 -- -- 39
2018-05-23 17:00:00 25.9 5 Sudeste 13 Sudoeste 0 -- -- 37
2018-05-23 16:00:00 24.1 8 Sudeste 13 Sudeste 0 -- -- 41
2018-05-23 15:00:00 24.7 6 Nordeste 18 Noroeste 0 -- -- 39
2018-05-23 14:00:00 24.7 5 Noroeste 17 Noroeste 0 -- -- 41
2018-05-23 13:00:00 24.3 6 Noroeste 13 Noroeste 0 -- -- 42
2018-05-23 12:00:00 23.1 5 Noroeste 9 Oeste 0 -- -- 47
2018-05-23 11:00:00 21.4 4 Noroeste 10 Oeste 0 -- -- 54
2018-05-23 10:00:00 20.6 5 Oeste 8 Oeste 0 -- -- 59
2018-05-23 09:00:00 17.1 3 Sudeste 4 Este 0 -- -- 73
2018-05-23 08:00:00 11.7 3 Este 6 Nordeste 0 -- -- 91
2018-05-23 07:00:00 10.4 4 Sur 10 Este 0 -- -- 95
2018-05-23 06:00:00 11.1 3 Nordeste 9 Nordeste 0 -- -- 93
2018-05-23 05:00:00 12.5 8 Sur 10 Sur 0 -- -- 91
2018-05-23 04:00:00 12.9 8 Sur 12 Sur 0 -- -- 90
2018-05-23 03:00:00 13.3 9 Sur 12 Sur 0 -- -- 87
2018-05-23 02:00:00 14.3 6 Sur 17 Sur 0 -- -- 84
2018-05-23 01:00:00 14.8 10 Sudeste 19 Sudeste 0 -- -- 85
2018-05-23 00:00:00 15.4 3 Este 5 Norte 0 -- -- 84
2018-05-22 23:00:00 17.2 5 Oeste 12 Noroeste 0 -- -- 73
2018-05-22 22:00:00 17.7 10 Sudoeste 19 Sudoeste 0 -- -- 67
2018-05-22 21:00:00 19.2 18 Sudoeste 33 Sur 0 -- -- 57
2018-05-22 20:00:00 21.7 24 Sur 32 Sur 0 -- -- 52
2018-05-22 19:00:00 24.3 0 Calma 15 Noroeste 0 -- -- 35
2018-05-22 18:00:00 26 5 Noroeste 21 Oeste 0 -- -- 30
2018-05-22 17:00:00 24.9 6 Norte 15 Oeste 0 -- -- 32
2018-05-22 16:00:00 24.1 8 Noroeste 16 Norte 0 -- -- 37
2018-05-22 15:00:00 23 8 Norte 20 Norte 0 -- -- 44
2018-05-22 14:00:00 22.6 6 Oeste 21 Sudoeste 0 -- -- 48
2018-05-22 13:00:00 21.4 8 Noroeste 20 Oeste 0 -- -- 49
2018-05-22 12:00:00 20.8 9 Oeste 14 Oeste 0 -- -- 54
2018-05-22 11:00:00 18.6 7 Oeste 15 Oeste 0 -- -- 59
2018-05-22 10:00:00 17.2 8 Sudoeste 13 Sudoeste 0 -- -- 61
2018-05-22 09:00:00 14.8 9 Sudoeste 13 Sudoeste 0 -- -- 76
2018-05-22 08:00:00 12 11 Sudoeste 15 Sudoeste 0 -- -- 88
2018-05-22 07:00:00 9.7 2 Sudeste 8 Sur 0 -- -- 93
2018-05-22 06:00:00 11.3 9 Sur 15 Sur 0 -- -- 92
2018-05-22 05:00:00 12 5 Sur 15 Sur 0 -- -- 92
2018-05-22 04:00:00 12.5 11 Sudeste 22 Sudeste 0 -- -- 92
2018-05-22 03:00:00 12.6 16 Sudeste 30 Este 0.2 -- -- 92
2018-05-22 02:00:00 12.9 15 Este 21 Sudeste 3.2 -- -- 91
2018-05-22 01:00:00 14.8 9 Nordeste 17 Norte 0 -- -- 77
2018-05-22 00:00:00 13.3 8 Este 13 Este 0 -- -- 83
2018-05-21 23:00:00 15.4 3 Sudeste 31 Sur 0.2 -- -- 70
2018-05-21 22:00:00 15.6 23 Sudoeste 35 Sur 0.2 -- -- 62
2018-05-21 21:00:00 17.1 14 Sudoeste 27 Sudoeste 0 -- -- 60
2018-05-21 20:00:00 17.8 21 Sudoeste 33 Sur 0 -- -- 57
2018-05-21 19:00:00 20.5 18 Sur 31 Este 0 -- -- 46
2018-05-21 18:00:00 21.2 23 Este 34 Este 0 -- -- 49
2018-05-21 17:00:00 22.8 10 Sudoeste 34 Sur 0 -- -- 37
2018-05-21 16:00:00 23 5 Sur 21 Sudoeste 0 -- -- 37
2018-05-21 15:00:00 22.9 12 Sudoeste 22 Oeste 0 -- -- 36
2018-05-21 14:00:00 22.9 5 Sudeste 19 Sudoeste 0 -- -- 39
2018-05-21 13:00:00 21.3 10 Sudoeste 20 Sudoeste 0 -- -- 42
2018-05-21 12:00:00 21 8 Oeste 15 Sur 0 -- -- 45
2018-05-21 11:00:00 20.3 3 Norte 11 Noroeste 0 -- -- 53
2018-05-21 10:00:00 15.9 3 Sur 12 Sudeste 0 -- -- 70
2018-05-21 09:00:00 12.4 7 Sudeste 13 Sudeste 0 -- -- 87
2018-05-21 08:00:00 10.2 4 Sudeste 9 Sudeste 0 -- -- 92
2018-05-21 07:00:00 9.8 6 Sudeste 9 Sur 0 -- -- 92
2018-05-21 06:00:00 10.3 6 Sur 11 Sur 0 -- -- 90
2018-05-21 05:00:00 11.3 9 Sur 15 Sur 0 -- -- 89
2018-05-21 04:00:00 9.9 10 Sur 12 Sudeste 0 -- -- 92
2018-05-21 03:00:00 11.1 3 Sur 5 Sudoeste 0 -- -- 87
2018-05-21 02:00:00 13.1 3 Oeste 6 Sudoeste 0 -- -- 80
2018-05-21 01:00:00 13.3 2 Sudoeste 8 Sudoeste 0 -- -- 81
2018-05-21 00:00:00 14.1 8 Sur 14 Sur 0 -- -- 74
2018-05-20 23:00:00 15.8 10 Sudoeste 15 Sudoeste 0 -- -- 64
2018-05-20 22:00:00 15.9 7 Sur 13 Sur 0 -- -- 67
2018-05-20 21:00:00 19.1 6 Sur 24 Sur 0 -- -- 47
2018-05-20 20:00:00 19.8 20 Sur 31 Sur 0 -- -- 47
2018-05-20 19:00:00 20.7 16 Sur 34 Sudoeste 0 -- -- 44
2018-05-20 18:00:00 19.8 30 Sudoeste 48 Sudoeste 0 -- -- 47
2018-05-20 17:00:00 19.1 37 Sudoeste 55 Sudoeste 0 -- -- 51
2018-05-20 16:00:00 23.4 12 Oeste 26 Noroeste 0 -- -- 35
2018-05-20 15:00:00 21.4 14 Norte 21 Norte 0 -- -- 37
2018-05-20 14:00:00 21.2 9 Norte 18 Noroeste 0 -- -- 37
2018-05-20 13:00:00 20 8 Noroeste 20 Noroeste 0 -- -- 51
2018-05-20 12:00:00 18.3 9 Nordeste 14 Nordeste 0 -- -- 58
2018-05-20 11:00:00 16.9 6 Norte 14 Norte 0 -- -- 64
2018-05-20 10:00:00 14.8 7 Norte 11 Norte 0 -- -- 72
2018-05-20 09:00:00 12.7 4 Norte 6 Norte 0 -- -- 80
2018-05-20 08:00:00 10.5 0 Calma 8 Sudeste 0 -- -- 92
2018-05-20 07:00:00 7.8 3 Nordeste 10 Noroeste 0 -- -- 93
2018-05-20 06:00:00 9.1 6 Norte 7 Norte 0 -- -- 91
2018-05-20 05:00:00 9.4 4 Noroeste 10 Oeste 0 -- -- 90
2018-05-20 04:00:00 10.1 5 Sudoeste 10 Norte 0 -- -- 88
2018-05-20 03:00:00 13.2 4 Noroeste 18 Norte 0 -- -- 71
2018-05-20 02:00:00 14.4 5 Noroeste 32 Norte 0 -- -- 65
2018-05-20 01:00:00 13.4 10 Este 22 Nordeste 0 -- -- 77
2018-05-20 00:00:00 12.3 7 Este 12 Nordeste 0 -- -- 87
2018-05-19 23:00:00 14.2 5 Nordeste 13 Este 0 -- -- 79
2018-05-19 22:00:00 17 8 Norte 10 Norte 0 -- -- 56
2018-05-19 21:00:00 19.8 8 Norte 19 Norte 0 -- -- 49
2018-05-19 20:00:00 21.9 15 Norte 25 Noroeste 0 -- -- 39
2018-05-19 19:00:00 22.8 15 Norte 27 Noroeste 0 -- -- 37
2018-05-19 18:00:00 23 19 Norte 30 Norte 0 -- -- 40
2018-05-19 17:00:00 22.2 18 Noroeste 31 Noroeste 0 -- -- 40
2018-05-19 16:00:00 22.4 14 Noroeste 29 Norte 0 -- -- 45
2018-05-19 15:00:00 21.6 11 Norte 22 Noroeste 0 -- -- 48
2018-05-19 14:00:00 21.4 7 Norte 19 Norte 0 -- -- 45
2018-05-19 13:00:00 20.1 13 Noroeste 21 Noroeste 0 -- -- 59
2018-05-19 12:00:00 19 6 Noroeste 13 Noroeste 0 -- -- 66
2018-05-19 11:00:00 18.3 3 Noroeste 6 Nordeste 0 -- -- 69
2018-05-19 10:00:00 15.9 3 Nordeste 10 Norte 0 -- -- 76
2018-05-19 09:00:00 11.8 5 Nordeste 8 Nordeste 0 -- -- 95
2018-05-19 08:00:00 9.3 2 Nordeste 4 Nordeste 0 -- -- 98
2018-05-19 07:00:00 8.1 0 Calma 4 Nordeste 0 -- -- 98
2018-05-19 06:00:00 7.1 2 Nordeste 5 Sudeste 0 -- -- 98
2018-05-19 05:00:00 7 2 Sudeste 3 Sudeste 0 -- -- 98
2018-05-19 04:00:00 7.5 0 Calma 7 Noroeste 0 -- -- 98
2018-05-19 03:00:00 8.2 3 Oeste 7 Oeste 0 -- -- 97
2018-05-19 02:00:00 8.8 3 Sudoeste 6 Sur 0 -- -- 96
2018-05-19 01:00:00 9.8 2 Norte 14 Este 0 -- -- 95
2018-05-19 00:00:00 10.5 6 Este 12 Norte 0 -- -- 94
2018-05-18 23:00:00 11.1 8 Este 13 Este 0 -- -- 92
2018-05-18 22:00:00 12 5 Este 15 Sudeste 0 -- -- 90
2018-05-18 21:00:00 13.5 9 Sudeste 35 Este 0 -- -- 82
2018-05-18 20:00:00 14.7 23 Este 39 Este 0 -- -- 76
2018-05-18 19:00:00 17 19 Nordeste 38 Nordeste 0 -- -- 69
2018-05-18 18:00:00 17.4 18 Norte 36 Nordeste 0.2 -- -- 63
2018-05-18 17:00:00 19.2 19 Nordeste 33 Nordeste 0 -- -- 58
2018-05-18 16:00:00 19.6 3 Norte 24 Este 3.2 -- -- 55
2018-05-18 15:00:00 19.7 7 Este 22 Sudeste 0 -- -- 54
2018-05-18 14:00:00 19.5 7 Este 20 Nordeste 0 -- -- 56
2018-05-18 13:00:00 18 10 Este 25 Nordeste 0 -- -- 64
2018-05-18 12:00:00 17.3 13 Nordeste 21 Nordeste 0 -- -- 72
2018-05-18 11:00:00 13.7 13 Nordeste 22 Nordeste 0 -- -- 83
2018-05-18 10:00:00 13.2 12 Nordeste 23 Nordeste 0 -- -- 85
2018-05-18 09:00:00 12.6 14 Nordeste 20 Este 0 -- -- 89
2018-05-18 08:00:00 11.6 10 Nordeste 21 Nordeste 0 -- -- 93
2018-05-18 07:00:00 10.7 14 Nordeste 20 Nordeste 0.4 -- -- 95
2018-05-18 06:00:00 10.7 6 Este 11 Nordeste 1.4 -- -- 96
2018-05-18 05:00:00 11.1 9 Este 17 Nordeste 3.4 -- -- 97
2018-05-18 04:00:00 11.4 4 Oeste 7 Oeste 1.2 -- -- 96
2018-05-18 03:00:00 11.3 5 Sudoeste 10 Sudoeste 0.2 -- -- 96
2018-05-18 02:00:00 11.2 6 Sudoeste 8 Sudoeste 0 -- -- 95
2018-05-18 01:00:00 11.2 5 Este 17 Este 0 -- -- 94
2018-05-18 00:00:00 11.4 10 Nordeste 19 Nordeste 0 -- -- 93
2018-05-17 23:00:00 11.4 7 Nordeste 13 Norte 0 -- -- 94
2018-05-17 22:00:00 11.7 9 Norte 27 Norte 0.4 -- -- 92
2018-05-17 21:00:00 13.1 12 Noroeste 32 Norte 2.8 -- -- 90
2018-05-17 20:00:00 14.9 21 Este 45 Sudeste 1 -- -- 68
2018-05-17 19:00:00 16.1 22 Sur 46 Sur 0 -- -- 64
2018-05-17 18:00:00 18.1 17 Sudeste 36 Sudeste 1 -- -- 61
2018-05-17 17:00:00 20.6 25 Sudeste 36 Este 0 -- -- 46
2018-05-17 16:00:00 25.5 11 Oeste 23 Oeste 0 -- -- 31
2018-05-17 15:00:00 24.2 10 Oeste 22 Oeste 0 -- -- 32
2018-05-17 14:00:00 23.1 7 Sudoeste 15 Sudoeste 0 -- -- 35
2018-05-17 13:00:00 22.2 6 Sudoeste 20 Sudoeste 0 -- -- 38
2018-05-17 12:00:00 20.6 5 Noroeste 11 Sudoeste 0 -- -- 44
2018-05-17 11:00:00 17.6 3 Nordeste 13 Oeste 0 -- -- 54
2018-05-17 10:00:00 12.1 6 Noroeste 10 Noroeste 0 -- -- 74
2018-05-17 09:00:00 11.3 7 Norte 15 Noroeste 0 -- -- 77
2018-05-17 08:00:00 9.4 5 Noroeste 9 Noroeste 0 -- -- 85
2018-05-17 07:00:00 6.2 2 Sur 6 Sur 0 -- -- 92
2018-05-17 06:00:00 6.6 3 Noroeste 7 Norte 0 -- -- 90
2018-05-17 05:00:00 7.6 7 Norte 14 Noroeste 0 -- -- 88
2018-05-17 04:00:00 8.4 7 Norte 14 Norte 0 -- -- 85
2018-05-17 03:00:00 8.3 6 Noroeste 14 Oeste 0 -- -- 82
2018-05-17 02:00:00 8.7 0 Calma 5 Sudoeste 0 -- -- 81
2018-05-17 01:00:00 10.4 2 Noroeste 13 Norte 0 -- -- 74
2018-05-17 00:00:00 13.6 8 Nordeste 16 Nordeste 0 -- -- 62
2018-05-16 23:00:00 14.6 10 Norte 22 Norte 0 -- -- 60
2018-05-16 22:00:00 17.6 15 Norte 25 Norte 0 -- -- 51
2018-05-16 21:00:00 20.3 19 Norte 30 Norte 0 -- -- 41
2018-05-16 20:00:00 22.6 15 Norte 25 Norte 0 -- -- 34
2018-05-16 19:00:00 23.5 16 Norte 27 Norte 0 -- -- 34
2018-05-16 18:00:00 24.2 11 Norte 36 Norte 0 -- -- 30
2018-05-16 17:00:00 24.5 9 Noroeste 27 Nordeste 0 -- -- 31
2018-05-16 16:00:00 23.4 12 Norte 24 Nordeste 0 -- -- 32
2018-05-16 15:00:00 21.8 12 Nordeste 26 Nordeste 0 -- -- 38
2018-05-16 14:00:00 20.6 11 Norte 27 Sudeste 0 -- -- 41
2018-05-16 13:00:00 18.7 12 Norte 20 Norte 0 -- -- 43
2018-05-16 12:00:00 16.2 12 Norte 17 Noroeste 0 -- -- 47
2018-05-16 11:00:00 13.8 9 Norte 15 Norte 0 -- -- 45
2018-05-16 10:00:00 12.4 4 Norte 10 Nordeste 0 -- -- 43
2018-05-16 09:00:00 9.4 6 Norte 13 Norte 0 -- -- 51
2018-05-16 08:00:00 7.2 4 Norte 9 Norte 0 -- -- 59
2018-05-16 07:00:00 3.9 8 Noroeste 13 Noroeste 0 -- -- 72
2018-05-16 06:00:00 3.6 2 Oeste 5 Sudoeste 0 -- -- 85
2018-05-16 05:00:00 4.4 4 Sudoeste 6 Oeste 0 -- -- 85
2018-05-16 04:00:00 5.4 3 Sudoeste 10 Sudoeste 0 -- -- 81
2018-05-16 03:00:00 8.6 9 Norte 14 Norte 0 -- -- 65
2018-05-16 02:00:00 8.2 0 Calma 12 Norte 0 -- -- 75
2018-05-16 01:00:00 10.6 6 Nordeste 18 Norte 0 -- -- 67
2018-05-16 00:00:00 11.7 12 Norte 20 Norte 0 -- -- 64
2018-05-15 23:00:00 13.6 15 Norte 21 Norte 0 -- -- 57
2018-05-15 22:00:00 15.3 10 Norte 20 Norte 0 -- -- 52
2018-05-15 21:00:00 18.3 18 Norte 28 Norte 0 -- -- 42
2018-05-15 20:00:00 20.3 18 Norte 30 Norte 0 -- -- 37
2018-05-15 19:00:00 21.1 19 Norte 32 Norte 0 -- -- 37
2018-05-15 18:00:00 21 19 Norte 35 Norte 0 -- -- 34
2018-05-15 17:00:00 21 16 Norte 28 Norte 0 -- -- 36
2018-05-15 16:00:00 20.1 14 Norte 26 Nordeste 0 -- -- 34
2018-05-15 15:00:00 19.3 18 Norte 30 Norte 0 -- -- 32
2018-05-15 14:00:00 17.8 14 Norte 33 Norte 0 -- -- 30
2018-05-15 13:00:00 16.3 11 Norte 27 Nordeste 0 -- -- 33
2018-05-15 12:00:00 15 13 Nordeste 24 Norte 0 -- -- 34
2018-05-15 11:00:00 12.8 10 Nordeste 23 Norte 0 -- -- 40
2018-05-15 10:00:00 10.3 9 Nordeste 15 Nordeste 0 -- -- 48
2018-05-15 09:00:00 7.8 7 Norte 12 Norte 0 -- -- 62
2018-05-15 08:00:00 4.2 4 Sudoeste 6 Sudoeste 0 -- -- 84
2018-05-15 07:00:00 0.1 0 Calma 6 Sudoeste 0 -- -- 92
2018-05-15 06:00:00 0.9 3 Oeste 6 Oeste 0 -- -- 90
2018-05-15 05:00:00 1.5 2 Oeste 5 Sudoeste 0 -- -- 88
2018-05-15 04:00:00 3.1 2 Sudeste 10 Nordeste 0 -- -- 85
2018-05-15 03:00:00 5.4 7 Nordeste 12 Nordeste 0 -- -- 76
2018-05-15 02:00:00 6.7 8 Norte 14 Nordeste 0 -- -- 70
2018-05-15 01:00:00 8.3 9 Nordeste 23 Nordeste 0 -- -- 62
2018-05-15 00:00:00 9.1 14 Nordeste 23 Nordeste 0 -- -- 63
2018-05-14 23:00:00 8.4 9 Nordeste 14 Nordeste 0 -- -- 67
2018-05-14 22:00:00 13.2 11 Nordeste 15 Norte 0 -- -- 46
2018-05-14 21:00:00 15.5 12 Nordeste 25 Norte 0 -- -- 38
2018-05-14 20:00:00 17 16 Norte 24 Norte 0 -- -- 38
2018-05-14 19:00:00 17.7 16 Norte 28 Norte 0 -- -- 37
2018-05-14 18:00:00 18.1 16 Nordeste 28 Noroeste 0 -- -- 39
2018-05-14 17:00:00 17 14 Norte 28 Norte 0 -- -- 43
2018-05-14 16:00:00 16.4 17 Norte 30 Norte 0 -- -- 46
2018-05-14 15:00:00 16.5 16 Nordeste 28 Nordeste 0 -- -- 50
2018-05-14 14:00:00 15.9 13 Norte 26 Norte 0 -- -- 50
2018-05-14 13:00:00 14.6 8 Norte 26 Norte 0 -- -- 60
2018-05-14 12:00:00 12.6 10 Noroeste 18 Noroeste 0 -- -- 66
2018-05-14 11:00:00 12.5 12 Oeste 23 Oeste 0 -- -- 68
2018-05-14 10:00:00 10.4 15 Oeste 25 Sudoeste 0 -- -- 74
2018-05-14 09:00:00 8.7 18 Sudoeste 24 Sudoeste 0 -- -- 81
2018-05-14 08:00:00 8.2 14 Sudoeste 22 Sudoeste 0 -- -- 82
2018-05-14 07:00:00 8 12 Sudoeste 22 Sudoeste 0 -- -- 83
2018-05-14 06:00:00 8 14 Sudoeste 21 Sudoeste 0 -- -- 81
2018-05-14 05:00:00 8 11 Sudoeste 19 Sudoeste 0 -- -- 79
2018-05-14 04:00:00 8 9 Sudoeste 18 Sudoeste 0 -- -- 78
2018-05-14 03:00:00 7.9 9 Oeste 21 Sudoeste 0 -- -- 78
2018-05-14 02:00:00 7.7 11 Oeste 17 Oeste 0 -- -- 77
2018-05-14 01:00:00 8 12 Oeste 21 Oeste 0 -- -- 74
2018-05-11 20:00:00 -- -- -- -- -- -- -- -- --
2018-05-11 19:00:00 -- -- -- -- -- -- -- -- --
2018-05-11 18:00:00 -- -- -- -- -- -- -- -- --
2018-05-11 17:00:00 -- -- -- -- -- -- -- -- --
2018-05-11 16:00:00 22.8 26 Oeste 40 Oeste 0 -- -- 44
2018-05-11 15:00:00 23.3 23 Sudoeste 50 Sudoeste 0 -- -- 39
2018-05-11 14:00:00 22.6 26 Sudoeste 37 Sudoeste 0 -- -- 45
2018-05-11 13:00:00 21.9 23 Sudoeste 35 Sur 0 -- -- 48
2018-05-11 12:00:00 20.9 23 Sudoeste 35 Sudoeste 0 -- -- 53
2018-05-11 11:00:00 20 18 Oeste 25 Oeste 0 -- -- 57
2018-05-11 10:00:00 16.7 5 Sudoeste 12 Sudoeste 0 -- -- 63
2018-05-11 09:00:00 12.5 3 Sur 7 Sudeste 0 -- -- 71
2018-05-11 08:00:00 8.7 3 Sudeste 4 Sudeste 0 -- -- 85
2018-05-11 07:00:00 4.9 2 Norte 5 Sudoeste 0 -- -- 92
2018-05-11 06:00:00 5.3 0 Calma 5 Este 0 -- -- 89
2018-05-11 05:00:00 6.5 3 Nordeste 5 Nordeste 0 -- -- 89
2018-05-11 04:00:00 6 5 Sudeste 9 Este 0 -- -- 88
2018-05-11 03:00:00 6.8 0 Calma 3 Oeste 0 -- -- 86
2018-05-11 02:00:00 7.5 0 Calma 5 Sudeste 0 -- -- 84
2018-05-11 01:00:00 8.6 5 Este 8 Nordeste 0 -- -- 79
2018-05-11 00:00:00 10 5 Nordeste 14 Nordeste 0 -- -- 72
2018-05-10 23:00:00 12.7 9 Norte 14 Norte 0 -- -- 60
2018-05-10 22:00:00 13.9 9 Norte 13 Norte 0 -- -- 57
2018-05-10 21:00:00 17.2 11 Norte 20 Norte 0 -- -- 48
2018-05-10 20:00:00 19.7 15 Norte 22 Norte 0 -- -- 40
2018-05-10 19:00:00 20.8 12 Noroeste 23 Norte 0 -- -- 40
2018-05-10 18:00:00 20.9 15 Norte 32 Norte 0 -- -- 39
2018-05-10 17:00:00 20.9 13 Norte 26 Norte 0 -- -- 40
2018-05-10 16:00:00 20.5 13 Norte 25 Norte 0 -- -- 39
2018-05-10 15:00:00 19.6 8 Nordeste 28 Nordeste 0 -- -- 39
2018-05-10 14:00:00 18.7 13 Norte 27 Nordeste 0 -- -- 43
2018-05-10 13:00:00 17.6 17 Norte 31 Nordeste 0 -- -- 46
2018-05-10 12:00:00 16.3 21 Nordeste 32 Nordeste 0 -- -- 51
2018-05-10 11:00:00 14.8 20 Nordeste 33 Nordeste 0 -- -- 55
2018-05-10 10:00:00 13 20 Norte 33 Norte 0 -- -- 59
2018-05-10 09:00:00 11.3 21 Nordeste 34 Nordeste 0 -- -- 65
2018-05-10 08:00:00 10.5 9 Norte 18 Norte 0 -- -- 74
2018-05-10 07:00:00 10.6 14 Norte 21 Norte 0 -- -- 77
2018-05-10 06:00:00 10.8 15 Norte 31 Norte 0 -- -- 78
2018-05-10 05:00:00 11.8 19 Norte 27 Norte 0 -- -- 80
2018-05-10 04:00:00 11.8 12 Norte 21 Norte 0 -- -- 85
2018-05-10 03:00:00 12.2 7 Noroeste 16 Norte 0 -- -- 84
2018-05-10 02:00:00 13.8 9 Noroeste 22 Oeste 0 -- -- 73
2018-05-10 01:00:00 15.4 18 Oeste 30 Oeste 0 -- -- 54
2018-05-10 00:00:00 16.1 19 Oeste 30 Oeste 0 -- -- 58
2018-05-09 23:00:00 17.2 19 Oeste 30 Oeste 0 -- -- 55
2018-05-09 22:00:00 18.4 13 Oeste 23 Oeste 0 -- -- 56
2018-05-09 21:00:00 20.1 12 Oeste 27 Sudoeste 0 -- -- 50
2018-05-09 20:00:00 21.1 21 Sudoeste 35 Sudoeste 0 -- -- 55
2018-05-09 19:00:00 23.3 6 Noroeste 19 Oeste 0 -- -- 37
2018-05-09 18:00:00 23.2 12 Oeste 20 Noroeste 0 -- -- 37
2018-05-09 17:00:00 22.7 11 Sudoeste 19 Oeste 0 -- -- 38
2018-05-09 16:00:00 23.9 10 Noroeste 23 Noroeste 0 -- -- 36
2018-05-09 15:00:00 22.9 7 Oeste 14 Oeste 0 -- -- 38
2018-05-09 14:00:00 21.5 6 Noroeste 18 Norte 0 -- -- 38
2018-05-09 13:00:00 20.1 3 Norte 14 Norte 0 -- -- 47
2018-05-09 12:00:00 18.1 4 Nordeste 11 Este 0 -- -- 54
2018-05-09 11:00:00 16.5 4 Norte 10 Norte 0 -- -- 65
2018-05-09 10:00:00 14.6 4 Nordeste 12 Nordeste 0 -- -- 74
2018-05-09 09:00:00 12 8 Nordeste 11 Nordeste 0 -- -- 86
2018-05-09 08:00:00 9.3 8 Norte 12 Nordeste 0 -- -- 94
2018-05-09 07:00:00 7.4 0 Calma 8 Nordeste 0 -- -- 96
2018-05-09 06:00:00 7.7 2 Nordeste 13 Norte 0 -- -- 95
2018-05-09 05:00:00 9 7 Norte 12 Norte 0 -- -- 95
2018-05-09 04:00:00 9.6 7 Norte 8 Noroeste 0 -- -- 96
2018-05-09 03:00:00 9.9 0 Calma 12 Norte 0 -- -- 93
2018-05-09 02:00:00 12.3 9 Noroeste 13 Noroeste 0 -- -- 90
2018-05-09 01:00:00 11.8 6 Sudeste 12 Nordeste 0 -- -- 91
2018-05-09 00:00:00 13.6 8 Nordeste 21 Nordeste 0 -- -- 87
2018-05-08 23:00:00 14.1 9 Nordeste 18 Nordeste 0.2 -- -- 83
2018-05-08 22:00:00 15.5 13 Nordeste 39 Norte 0 -- -- 73
2018-05-08 21:00:00 17.3 29 Norte 39 Norte 0 -- -- 69
2018-05-08 20:00:00 21.7 23 Noroeste 41 Oeste 0 -- -- 47
2018-05-08 19:00:00 25.8 12 Noroeste 21 Noroeste 0 -- -- 37
2018-05-08 18:00:00 25.6 12 Norte 21 Norte 0 -- -- 34
2018-05-08 17:00:00 25.6 9 Oeste 21 Noroeste 0 -- -- 33
2018-05-08 16:00:00 23.2 12 Norte 19 Norte 0 -- -- 42
2018-05-08 15:00:00 23.6 9 Noroeste 20 Norte 0 -- -- 48
2018-05-08 14:00:00 22.9 7 Noroeste 21 Norte 0 -- -- 55
2018-05-08 13:00:00 21.5 5 Nordeste 13 Nordeste 0 -- -- 61
2018-05-08 12:00:00 21.5 4 Norte 10 Nordeste 0 -- -- 60
2018-05-08 11:00:00 20.9 2 Nordeste 8 Sur 0 -- -- 62
2018-05-08 10:00:00 17.7 4 Sudoeste 10 Sudeste 0 -- -- 78
2018-05-08 09:00:00 14.5 8 Sur 11 Sudeste 0 -- -- 90
2018-05-08 08:00:00 11.7 4 Sudeste 9 Sudeste 0 -- -- 94
2018-05-08 07:00:00 10.6 5 Sudeste 8 Sudeste 0 -- -- 97
2018-05-08 06:00:00 11.2 6 Sudeste 8 Sudeste 0 -- -- 97
2018-05-08 05:00:00 11 0 Calma 7 Este 0 -- -- 97
2018-05-08 04:00:00 11.4 3 Norte 8 Este 0 -- -- 96
2018-05-08 03:00:00 12.4 3 Sudeste 14 Sudoeste 0 -- -- 94
2018-05-08 02:00:00 13.7 13 Sudoeste 17 Sudoeste 0 -- -- 92
2018-05-08 01:00:00 13.9 13 Sudoeste 16 Sur 1.2 -- -- 93
2018-05-08 00:00:00 14.6 9 Norte 19 Norte 0.8 -- -- 85
2018-05-07 23:00:00 15.4 6 Este 27 Sudeste 0 -- -- 81
2018-05-07 22:00:00 16.3 19 Sudeste 33 Este 0 -- -- 76
2018-05-07 21:00:00 17.6 27 Este 59 Nordeste 0 -- -- 67
2018-05-07 20:00:00 24.9 8 Noroeste 18 Oeste 0 -- -- 35
2018-05-07 19:00:00 26.5 4 Norte 27 Noroeste 0 -- -- 32
2018-05-07 18:00:00 27 4 Noroeste 18 Norte 0 -- -- 31
2018-05-07 17:00:00 24.8 8 Nordeste 19 Noroeste 0 -- -- 36
2018-05-07 16:00:00 24.8 10 Norte 23 Norte 0 -- -- 37
2018-05-07 15:00:00 24.4 7 Norte 21 Nordeste 0 -- -- 36
2018-05-07 14:00:00 22.5 9 Norte 16 Norte 0.2 -- -- 44
2018-05-07 13:00:00 22.2 5 Sudeste 13 Este 0 -- -- 49
2018-05-07 12:00:00 20.6 3 Nordeste 8 Este 0 -- -- 59
2018-05-07 11:00:00 15.3 4 Nordeste 10 Nordeste 0 -- -- 81
2018-05-07 10:00:00 13.6 5 Este 9 Este 0 -- -- 86
2018-05-07 09:00:00 11.1 0 Calma 6 Sudeste 0 -- -- 89
2018-05-07 08:00:00 7.8 5 Sudeste 11 Sudeste 0 -- -- 97
2018-05-07 07:00:00 7.3 4 Este 6 Este 0 -- -- 97
2018-05-07 06:00:00 7.7 5 Noroeste -- -- 0 -- -- 96
2018-05-07 05:00:00 8.5 2 Sudoeste 4 Oeste 0 -- -- 95
2018-05-07 04:00:00 9.7 4 Sur 9 Sur 0 -- -- 93
2018-05-07 03:00:00 10.7 4 Sudeste 11 Sur 0 -- -- 94
2018-05-07 02:00:00 11.5 4 Sudoeste 14 Sur 0 -- -- 94
2018-05-07 01:00:00 13.3 4 Sur 26 Norte 0.2 -- -- 92
2018-05-07 00:00:00 12.8 8 Sudeste 16 Sudoeste 0 -- -- 91
2018-05-06 23:00:00 14.6 11 Sudoeste 21 Sudoeste 0 -- -- 82
2018-05-06 22:00:00 15.7 9 Sudoeste 18 Sur 0 -- -- 70
2018-05-06 21:00:00 17.7 15 Sudoeste 21 Sudoeste 0 -- -- 59
2018-05-06 20:00:00 18.5 13 Sudeste 28 Sudeste 0 -- -- 58
2018-05-06 19:00:00 23.3 4 Norte 16 Norte 0 -- -- 38
2018-05-06 18:00:00 24.7 8 Sur 14 Nordeste 0 -- -- 36
2018-05-06 17:00:00 24.3 10 Nordeste 19 Nordeste 0 -- -- 35
2018-05-06 16:00:00 24.5 6 Nordeste 15 Nordeste 0 -- -- 38
2018-05-06 15:00:00 23 8 Sudeste 17 Este 0 -- -- 43
2018-05-06 14:00:00 21.7 8 Sudeste 22 Este 0 -- -- 46
2018-05-06 13:00:00 20.9 12 Nordeste 25 Sudeste 0 -- -- 50
2018-05-06 12:00:00 20.6 15 Sudeste 27 Este 0 -- -- 53
2018-05-06 11:00:00 18.6 18 Este 29 Este 0 -- -- 60
2018-05-06 10:00:00 17.3 12 Este 21 Este 0 -- -- 69
2018-05-06 09:00:00 11.4 6 Nordeste 10 Este 0 -- -- 90
2018-05-06 08:00:00 8.7 5 Nordeste 8 Norte 0 -- -- 94
2018-05-06 07:00:00 5.9 3 Norte 8 Norte 0 -- -- 95
2018-05-06 06:00:00 6.1 0 Calma 5 Norte 0 -- -- 95
2018-05-06 05:00:00 6.7 2 Nordeste 5 Este 0 -- -- 94
2018-05-06 04:00:00 7 2 Sudoeste 9 Nordeste 0 -- -- 93
2018-05-06 03:00:00 7.1 2 Sudeste 5 Oeste 0 -- -- 92
2018-05-06 02:00:00 8.3 3 Oeste 5 Oeste 0 -- -- 89
2018-05-06 01:00:00 9.6 2 Norte 8 Norte 0 -- -- 84
2018-05-06 00:00:00 12.3 6 Nordeste 15 Norte 0 -- -- 75
2018-05-05 23:00:00 13.9 11 Norte 18 Nordeste 0 -- -- 69
2018-05-05 22:00:00 14.9 10 Norte 14 Norte 0 -- -- 62
2018-05-05 21:00:00 17.5 4 Sudoeste 6 Noroeste 0 -- -- 54
2018-05-05 20:00:00 21.4 5 Oeste 12 Oeste 0 -- -- 37
2018-05-05 19:00:00 22.2 7 Oeste 11 Oeste 0 -- -- 35
2018-05-05 18:00:00 22.3 5 Noroeste 13 Nordeste 0 -- -- 36
2018-05-05 17:00:00 21.3 4 Norte 16 Nordeste 0 -- -- 38
2018-05-05 16:00:00 19.1 6 Norte 14 Oeste 0 -- -- 45
2018-05-05 15:00:00 18 5 Norte 17 Nordeste 0 -- -- 49
2018-05-05 14:00:00 16.7 6 Nordeste 15 Oeste 0 -- -- 52
2018-05-05 13:00:00 15.1 7 Norte 13 Noroeste 0 -- -- 57
2018-05-05 12:00:00 13.5 5 Norte 13 Norte 0 -- -- 63
2018-05-05 11:00:00 11.7 5 Nordeste 10 Norte 0 -- -- 65
2018-05-05 10:00:00 10.2 3 Sudeste 9 Norte 0 -- -- 70
2018-05-05 09:00:00 7 5 Norte 8 Nordeste 0 -- -- 82
2018-05-05 08:00:00 4.9 0 Calma 6 Norte 0 -- -- 90
2018-05-05 07:00:00 3 4 Norte 10 Nordeste 0 -- -- 93
2018-05-05 06:00:00 3.3 7 Norte 10 Nordeste 0 -- -- 93
2018-05-05 05:00:00 3.8 8 Norte 9 Norte 0 -- -- 92
2018-05-05 04:00:00 3.7 5 Noroeste 6 Noroeste 0 -- -- 92
2018-05-05 03:00:00 4 5 Noroeste 7 Noroeste 0 -- -- 91
2018-05-05 02:00:00 4.2 0 Calma 5 Norte 0 -- -- 91
2018-05-05 01:00:00 6 4 Norte 10 Norte 0 -- -- 85
2018-05-05 00:00:00 7.6 9 Norte 23 Norte 0 -- -- 79
2018-05-04 23:00:00 8.7 13 Norte 26 Nordeste 0 -- -- 74
2018-05-04 22:00:00 10.5 18 Norte 28 Norte 0 -- -- 66
2018-05-04 21:00:00 12.6 20 Norte 36 Norte 0 -- -- 58
2018-05-04 20:00:00 14.7 22 Norte 33 Norte 0 -- -- 51
2018-05-04 19:00:00 15.7 23 Norte 35 Norte 0 -- -- 47
2018-05-04 18:00:00 16.6 19 Norte 37 Norte 0 -- -- 45
2018-05-04 17:00:00 16.1 21 Norte 33 Norte 0 -- -- 45
2018-05-04 16:00:00 15.5 18 Norte 33 Norte 0 -- -- 46
2018-05-04 15:00:00 15.1 18 Nordeste 35 Norte 0 -- -- 49
2018-05-04 14:00:00 13.7 23 Nordeste 42 Norte 0 -- -- 49
2018-05-04 13:00:00 12.8 20 Nordeste 33 Nordeste 0 -- -- 52
2018-05-04 12:00:00 11.3 20 Nordeste 32 Norte 0 -- -- 50
2018-05-04 11:00:00 9.7 22 Nordeste 33 Nordeste 0 -- -- 56
2018-05-04 10:00:00 8.1 20 Nordeste 36 Norte 0 -- -- 62
2018-05-04 09:00:00 5.9 11 Norte 18 Norte 0 -- -- 73
2018-05-04 08:00:00 3 7 Norte 10 Norte 0 -- -- 84
2018-05-04 07:00:00 1.6 8 Norte 12 Norte 0 -- -- 87
2018-05-04 06:00:00 2.5 10 Norte 17 Norte 0 -- -- 84
2018-05-04 05:00:00 1.9 9 Norte 12 Norte 0 -- -- 85
2018-05-04 04:00:00 3 8 Norte 11 Norte 0 -- -- 80
2018-05-04 03:00:00 4 5 Nordeste 19 Nordeste 0 -- -- 77
2018-05-04 02:00:00 4.4 9 Norte 22 Nordeste 0 -- -- 76
2018-05-04 01:00:00 5.6 10 Nordeste 21 Nordeste 0 -- -- 70
2018-05-04 00:00:00 5.8 10 Norte 21 Nordeste 0 -- -- 70
2018-05-03 23:00:00 7.4 15 Nordeste 27 Nordeste 0 -- -- 63
2018-05-03 22:00:00 8.6 14 Nordeste 24 Norte 0 -- -- 58
2018-05-03 21:00:00 10.8 19 Norte 32 Norte 0 -- -- 54
2018-05-03 20:00:00 12.6 23 Norte 37 Norte 0 -- -- 48
2018-05-03 19:00:00 13.9 26 Norte 36 Norte 0 -- -- 43
2018-05-03 18:00:00 14.8 23 Norte 37 Norte 0 -- -- 44
2018-05-03 17:00:00 13.7 21 Nordeste 34 Norte 0 -- -- 45
2018-05-03 16:00:00 14.4 19 Norte 30 Nordeste 0 -- -- 47
2018-05-03 15:00:00 14 18 Norte 30 Nordeste 0 -- -- 47
2018-05-03 14:00:00 12.4 19 Norte 28 Norte 0 -- -- 56
2018-05-03 13:00:00 11.6 17 Norte 29 Nordeste 0 -- -- 63
2018-05-03 12:00:00 11.3 16 Nordeste 29 Norte 0 -- -- 70
2018-05-03 11:00:00 10.3 13 Nordeste 21 Nordeste 0 -- -- 77
2018-05-03 10:00:00 10 12 Nordeste 17 Norte 0 -- -- 82
2018-05-03 09:00:00 8.9 9 Noroeste 12 Noroeste 0 -- -- 89
2018-05-03 08:00:00 7.9 4 Oeste 11 Sudoeste 0 -- -- 95
2018-05-03 07:00:00 7 10 Sudoeste 13 Sudoeste 0 -- -- 95
2018-05-03 06:00:00 7.8 9 Oeste 13 Oeste 0 -- -- 93
2018-05-03 05:00:00 8.2 3 Oeste 11 Sudoeste 0 -- -- 92
2018-05-03 04:00:00 8.6 8 Sudoeste 15 Oeste 0 -- -- 91
2018-05-03 03:00:00 8.3 11 Sudoeste 13 Oeste 0 -- -- 91
2018-05-03 02:00:00 9.8 8 Sudoeste 18 Oeste 0 -- -- 87
2018-05-03 01:00:00 10.7 12 Oeste 23 Oeste 0 -- -- 81
2018-05-03 00:00:00 11.3 14 Oeste 20 Oeste 0 -- -- 79
2018-05-02 23:00:00 11.7 13 Oeste 20 Oeste 0 -- -- 77
2018-05-02 22:00:00 12.1 13 Oeste 21 Oeste 0 -- -- 73
2018-05-02 21:00:00 13.6 12 Oeste 21 Oeste 0 -- -- 64
2018-05-02 20:00:00 14.5 12 Oeste 21 Oeste 0 -- -- 56
2018-05-02 19:00:00 15.1 15 Oeste 23 Oeste 0 -- -- 54
2018-05-02 18:00:00 15.2 15 Oeste 25 Oeste 0 -- -- 54
2018-05-02 17:00:00 15.3 15 Oeste 26 Oeste 0 -- -- 53
2018-05-02 16:00:00 15.8 14 Oeste 28 Oeste 0 -- -- 47
2018-05-02 15:00:00 14.2 15 Oeste 28 Oeste 0 -- -- 43
2018-05-02 14:00:00 13.3 18 Sudoeste 31 Sudoeste 0 -- -- 36
2018-05-02 13:00:00 12.4 14 Oeste 28 Oeste 0 -- -- 37
2018-05-02 12:00:00 11 13 Sudoeste 23 Oeste 0 -- -- 45
2018-05-02 11:00:00 9.8 13 Sudoeste 22 Sudoeste 0 -- -- 49
2018-05-02 10:00:00 8.3 15 Sudoeste 21 Sudoeste 0 -- -- 61
2018-05-02 09:00:00 5.1 7 Sudoeste 14 Sudoeste 0 -- -- 81
2018-05-02 08:00:00 3.2 10 Sudoeste 15 Sudoeste 0 -- -- 89
2018-05-02 07:00:00 4.6 10 Sudoeste 17 Sudoeste 0 -- -- 84
2018-05-02 06:00:00 5 9 Sur 19 Sudoeste 0 -- -- 84
2018-05-02 05:00:00 4.8 12 Sudoeste 18 Sur 0 -- -- 87
2018-05-02 04:00:00 4.6 8 Sudoeste 12 Sudoeste 0 -- -- 89
2018-05-02 03:00:00 4.7 9 Sudoeste 21 Sudoeste 0 -- -- 86
2018-05-02 02:00:00 5 11 Sur 15 Sur 0 -- -- 82
2018-05-02 01:00:00 5.1 12 Sur 13 Sur 0 -- -- 83
2018-05-02 00:00:00 5.1 8 Sudeste 10 Sudeste 0 -- -- 84
2018-05-01 23:00:00 4.9 6 Sudeste 8 Sudeste 0 -- -- 83
2018-05-01 22:00:00 6.6 3 Sur 8 Sudoeste 0 -- -- 76
2018-05-01 21:00:00 10 8 Oeste 14 Oeste 0 -- -- 60
2018-05-01 20:00:00 13.3 8 Noroeste 17 Oeste 0 -- -- 42
2018-05-01 19:00:00 14.9 8 Oeste 16 Oeste 0 -- -- 35
2018-05-01 18:00:00 14.2 5 Oeste 18 Sudoeste 0 -- -- 38
2018-05-01 17:00:00 14.4 5 Noroeste 15 Noroeste 0 -- -- 35
2018-05-01 16:00:00 12.6 11 Noroeste 20 Noroeste 0 -- -- 40
2018-05-01 15:00:00 12.6 7 Oeste 19 Nordeste 0 -- -- 40
2018-05-01 14:00:00 10.5 8 Noroeste 15 Norte 0 -- -- 48
2018-05-01 13:00:00 10.5 8 Norte 21 Norte 0 -- -- 56
2018-05-01 12:00:00 9.2 9 Norte 27 Norte 0 -- -- 59
2018-05-01 11:00:00 8.9 12 Nordeste 19 Norte 0 -- -- 62
2018-05-01 10:00:00 7.4 12 Nordeste 21 Nordeste 0 -- -- 71
2018-05-01 09:00:00 5.5 9 Nordeste 15 Nordeste 0 -- -- 81
2018-05-01 08:00:00 2.3 5 Nordeste 9 Nordeste 0 -- -- 94
2018-05-01 07:00:00 2.5 6 Nordeste 10 Nordeste 0 -- -- 90
2018-05-01 06:00:00 3.3 4 Nordeste 12 Nordeste 0 -- -- 91
2018-05-01 05:00:00 3.5 6 Nordeste 11 Norte 0 -- -- 96
2018-05-01 04:00:00 3.2 6 Norte 9 Norte 0 -- -- 96
2018-05-01 03:00:00 4.3 2 Noroeste 4 Noroeste 0 -- -- 96
2018-05-01 02:00:00 4.6 0 Calma 4 Sudoeste 0 -- -- 96
2018-05-01 01:00:00 4.3 0 Calma 5 Noroeste 0 -- -- 95
2018-05-01 00:00:00 4.6 3 Noroeste 5 Oeste 0 -- -- 94
2018-04-30 23:00:00 4.9 0 Calma 6 Oeste 0 -- -- 91
2018-04-30 22:00:00 5.9 4 Oeste 16 Sudoeste 0 -- -- 88
2018-04-30 21:00:00 6.1 14 Sudoeste 26 Oeste 0 -- -- 85
2018-04-30 20:00:00 7.1 18 Oeste 40 Oeste 0 -- -- 79
2018-04-30 19:00:00 7.4 30 Oeste 48 Oeste 0 -- -- 78
2018-04-30 18:00:00 10.2 12 Noroeste 26 Oeste 0 -- -- 61
2018-04-30 17:00:00 10.6 13 Oeste 23 Sudoeste 0 -- -- 61
2018-04-30 16:00:00 9.6 18 Oeste 33 Oeste 0.2 -- -- 66
2018-04-30 15:00:00 8.7 15 Oeste 35 Sudoeste 0 -- -- 69
2018-04-30 14:00:00 7 24 Sudoeste 41 Sudoeste 0.2 -- -- 77
2018-04-30 13:00:00 5.9 21 Oeste 36 Sudoeste 1.4 -- -- 80
2018-04-30 12:00:00 6.8 13 Sudoeste 26 Sudoeste 0 -- -- 73
2018-04-30 11:00:00 5.8 14 Sudoeste 24 Sudoeste 0 -- -- 74
2018-04-30 10:00:00 5.3 15 Sudoeste 21 Sudoeste 0 -- -- 81
2018-04-30 09:00:00 4.4 10 Sudoeste 16 Sudoeste 0 -- -- 86
2018-04-30 08:00:00 2.6 10 Sur 13 Sur 0 -- -- 93
2018-04-30 07:00:00 1 6 Sudoeste 13 Sudoeste 0 -- -- 96
2018-04-30 06:00:00 0.9 10 Sudoeste 14 Sudoeste 0 -- -- 96
2018-04-30 05:00:00 1.8 11 Sudoeste 15 Sudoeste 0 -- -- 94
2018-04-30 04:00:00 1.2 8 Sudoeste 12 Sur 0 -- -- 96
2018-04-30 03:00:00 1.8 5 Sudoeste 14 Sudoeste 0 -- -- 92
2018-04-30 02:00:00 2.3 8 Sur 12 Sudoeste 0 -- -- 94
2018-04-30 01:00:00 3.1 7 Sudoeste 14 Sur 0 -- -- 94
2018-04-30 00:00:00 3.1 6 Sudoeste 13 Sudoeste 0 -- -- 90
2018-04-29 23:00:00 4.2 13 Sudoeste 33 Sudoeste 0 -- -- 82
2018-04-29 22:00:00 5.4 17 Sudoeste 33 Sudoeste 0 -- -- 80
2018-04-29 21:00:00 5.8 23 Sudoeste 41 Sudoeste 0 -- -- 77
2018-04-29 20:00:00 5.8 37 Sudoeste 57 Sudoeste 0 -- -- 76
2018-04-29 19:00:00 9.5 37 Sudoeste 57 Sudoeste 0 -- -- 58
2018-04-29 18:00:00 10.3 34 Sudoeste 60 Sudoeste 0 -- -- 56
2018-04-29 17:00:00 10.4 40 Sudoeste 59 Sudoeste 0 -- -- 57
2018-04-29 16:00:00 10.3 40 Sudoeste 57 Sudoeste 0 -- -- 61
2018-04-29 15:00:00 10.6 39 Sudoeste 52 Sudoeste 0 -- -- 62
2018-04-29 14:00:00 9.6 32 Sudoeste 57 Sudoeste 0 -- -- 71
2018-04-29 13:00:00 9.2 33 Sudoeste 59 Sudoeste 0.4 -- -- 72
2018-04-29 12:00:00 7 31 Sudoeste 50 Sudoeste 0 -- -- 84
2018-04-29 11:00:00 6.4 24 Sudoeste 37 Sudoeste 0.2 -- -- 89
2018-04-29 10:00:00 4.8 19 Sudoeste 32 Sudoeste 1 -- -- 93
2018-04-29 09:00:00 3.2 23 Sudoeste 35 Sudoeste 1.2 -- -- 94
2018-04-29 08:00:00 3.4 23 Sudoeste 35 Sudoeste 1.2 -- -- 93
2018-04-29 07:00:00 5.1 19 Sudoeste 26 Sur 1 -- -- 93
2018-04-29 06:00:00 5.6 11 Sur 18 Sur 0.2 -- -- 92
2018-04-29 05:00:00 5.4 10 Sudoeste 14 Sudoeste 0 -- -- 88
2018-04-29 04:00:00 4.3 6 Sudoeste 15 Sudoeste 0 -- -- 90
2018-04-29 03:00:00 5.3 8 Sudoeste 18 Sudoeste 0 -- -- 87
2018-04-29 02:00:00 6 13 Sudoeste 17 Sudoeste 0 -- -- 82
2018-04-29 01:00:00 6.4 10 Sudoeste 14 Sudoeste 0 -- -- 77
2018-04-29 00:00:00 6 10 Sudoeste 21 Sudoeste 0 -- -- 77
2018-04-28 23:00:00 7.7 17 Sudoeste 26 Sudoeste 0 -- -- 67
2018-04-28 22:00:00 8 12 Sudoeste 24 Sudoeste 0 -- -- 63
2018-04-28 21:00:00 9.8 23 Sudoeste 35 Sudoeste 0 -- -- 57
2018-04-28 20:00:00 11.2 23 Sudoeste 34 Sudoeste 0 -- -- 51
2018-04-28 19:00:00 13.4 27 Sudoeste 41 Oeste 0 -- -- 42
2018-04-28 18:00:00 14.1 28 Sudoeste 45 Sudoeste 0 -- -- 40
2018-04-28 17:00:00 14.2 30 Sudoeste 44 Sudoeste 0 -- -- 38
2018-04-28 16:00:00 13.5 23 Sudoeste 42 Sudoeste 0 -- -- 46
2018-04-28 15:00:00 13.4 23 Sudoeste 36 Sudoeste 0 -- -- 47
2018-04-28 14:00:00 12.2 24 Sudoeste 36 Oeste 0 -- -- 57
2018-04-28 13:00:00 10.9 19 Sudoeste 32 Sudoeste 0 -- -- 64
2018-04-28 12:00:00 9.7 20 Oeste 32 Oeste 0 -- -- 71
2018-04-28 11:00:00 8.9 20 Oeste 30 Oeste 0 -- -- 73
2018-04-28 10:00:00 9 17 Sudoeste 30 Sudoeste 0 -- -- 78
2018-04-28 09:00:00 7.4 21 Sudoeste 28 Sudoeste 0 -- -- 85
2018-04-28 08:00:00 5.9 20 Sudoeste 27 Sudoeste 0 -- -- 91
2018-04-28 07:00:00 6.6 15 Sudoeste 24 Sudoeste 0 -- -- 88
2018-04-28 06:00:00 8.4 14 Sudoeste 22 Sudoeste 0 -- -- 83
2018-04-28 05:00:00 9.1 16 Sudoeste 24 Sudoeste 0 -- -- 78
2018-04-28 04:00:00 8.7 13 Sudoeste 20 Sudoeste 0 -- -- 79
2018-04-28 03:00:00 10.4 16 Sudoeste 22 Sudoeste 0 -- -- 73
2018-04-28 02:00:00 11.2 3 Sudoeste 15 Sudoeste 0 -- -- 82
2018-04-28 01:00:00 10.1 9 Sudoeste 10 Sudoeste 0 -- -- 79
2018-04-28 00:00:00 11.9 6 Sudoeste 9 Sudoeste 0 -- -- 76